sensor_id;sensor_type;location;lat;lon;timestamp;P1;durP1;ratioP1;P2;durP2;ratioP2
48881;SDS011;57063;51.406;-2.402;2022-12-07T06:22:36;12.48;;;5.32;;
48881;SDS011;57063;51.406;-2.402;2022-12-07T06:27:43;17.15;;;5.63;;
48881;SDS011;57063;51.406;-2.402;2022-12-07T06:30:08;13.20;;;6.10;;
48881;SDS011;57063;51.406;-2.402;2022-12-07T06:32:35;13.07;;;5.50;;
48881;SDS011;57063;51.406;-2.402;2022-12-07T06:35:20;15.75;;;5.22;;
48881;SDS011;57063;51.406;-2.402;2022-12-07T06:38:08;12.70;;;4.80;;
48881;SDS011;57063;51.406;-2.402;2022-12-07T06:40:46;7.60;;;4.53;;
48881;SDS011;57063;51.406;-2.402;2022-12-07T06:43:30;18.42;;;5.05;;
48881;SDS011;57063;51.406;-2.402;2022-12-07T06:54:31;15.77;;;5.45;;
48881;SDS011;57063;51.406;-2.402;2022-12-07T07:01:56;15.45;;;6.82;;
48881;SDS011;57063;51.406;-2.402;2022-12-07T07:52:52;16.45;;;6.13;;
48881;SDS011;57063;51.406;-2.402;2022-12-07T08:23:07;16.58;;;7.80;;
48881;SDS011;57063;51.406;-2.402;2022-12-07T08:26:20;14.70;;;7.10;;
48881;SDS011;57063;51.406;-2.402;2022-12-07T08:30:04;22.05;;;9.15;;
48881;SDS011;57063;51.406;-2.402;2022-12-07T08:39:43;31.55;;;15.32;;
48881;SDS011;57063;51.406;-2.402;2022-12-07T10:03:40;17.88;;;12.13;;
48881;SDS011;57063;51.406;-2.402;2022-12-07T10:06:13;26.40;;;12.85;;
48881;SDS011;57063;51.406;-2.402;2022-12-07T10:08:41;23.83;;;12.75;;
48881;SDS011;57063;51.406;-2.402;2022-12-07T10:11:08;16.13;;;11.45;;
48881;SDS011;57063;51.406;-2.402;2022-12-07T10:13:42;22.88;;;10.95;;
48881;SDS011;57063;51.406;-2.402;2022-12-07T10:18:53;37.45;;;15.55;;
48881;SDS011;57063;51.406;-2.402;2022-12-07T10:21:23;29.23;;;14.88;;
48881;SDS011;57063;51.406;-2.402;2022-12-07T10:26:36;17.95;;;10.07;;
48881;SDS011;57063;51.406;-2.402;2022-12-07T10:31:42;16.90;;;11.35;;
48881;SDS011;57063;51.406;-2.402;2022-12-07T10:34:29;20.30;;;11.48;;
48881;SDS011;57063;51.406;-2.402;2022-12-07T10:39:56;21.60;;;11.50;;
48881;SDS011;57063;51.406;-2.402;2022-12-07T10:42:26;19.08;;;10.98;;
48881;SDS011;57063;51.406;-2.402;2022-12-07T11:01:50;19.38;;;9.65;;
48881;SDS011;57063;51.406;-2.402;2022-12-07T11:07:38;10.38;;;8.02;;
48881;SDS011;57063;51.406;-2.402;2022-12-07T11:12:54;9.10;;;3.35;;
48881;SDS011;57063;51.406;-2.402;2022-12-07T11:15:48;4.03;;;2.60;;
48881;SDS011;57063;51.406;-2.402;2022-12-07T11:18:24;6.80;;;2.17;;
48881;SDS011;57063;51.406;-2.402;2022-12-07T11:21:09;7.65;;;2.30;;
48881;SDS011;57063;51.406;-2.402;2022-12-07T11:23:53;6.13;;;2.85;;
48881;SDS011;57063;51.406;-2.402;2022-12-07T11:37:27;8.98;;;5.40;;
48881;SDS011;57063;51.406;-2.402;2022-12-07T11:40:01;8.85;;;5.25;;
48881;SDS011;57063;51.406;-2.402;2022-12-07T11:42:33;8.95;;;5.00;;
48881;SDS011;57063;51.406;-2.402;2022-12-07T11:55:57;10.27;;;5.60;;
48881;SDS011;57063;51.406;-2.402;2022-12-07T12:06:37;11.80;;;3.92;;
48881;SDS011;57063;51.406;-2.402;2022-12-07T12:09:05;10.20;;;5.53;;
48881;SDS011;57063;51.406;-2.402;2022-12-07T12:18:05;11.45;;;4.32;;
48881;SDS011;57063;51.406;-2.402;2022-12-07T12:29:43;9.05;;;4.45;;
48881;SDS011;57063;51.406;-2.402;2022-12-07T12:42:03;8.70;;;3.78;;
48881;SDS011;57063;51.406;-2.402;2022-12-07T12:57:30;9.18;;;4.60;;
48881;SDS011;57063;51.406;-2.402;2022-12-07T13:05:46;13.13;;;5.22;;
48881;SDS011;57063;51.406;-2.402;2022-12-07T13:08:42;12.30;;;5.07;;
48881;SDS011;57063;51.406;-2.402;2022-12-07T13:20:39;11.30;;;4.72;;
48881;SDS011;57063;51.406;-2.402;2022-12-07T13:23:10;10.52;;;4.55;;
48881;SDS011;57063;51.406;-2.402;2022-12-07T13:25:48;16.25;;;4.38;;
48881;SDS011;57063;51.406;-2.402;2022-12-07T13:28:19;11.02;;;4.22;;
48881;SDS011;57063;51.406;-2.402;2022-12-07T13:30:50;5.93;;;3.42;;
48881;SDS011;57063;51.406;-2.402;2022-12-07T13:36:30;22.67;;;4.05;;
48881;SDS011;57063;51.406;-2.402;2022-12-07T13:39:52;10.05;;;2.92;;
48881;SDS011;57063;51.406;-2.402;2022-12-07T13:42:26;11.70;;;4.13;;
48881;SDS011;57063;51.406;-2.402;2022-12-07T13:44:54;12.88;;;3.10;;
48881;SDS011;57063;51.406;-2.402;2022-12-07T13:50:27;8.77;;;3.00;;
48881;SDS011;57063;51.406;-2.402;2022-12-07T13:53:00;9.63;;;3.92;;
48881;SDS011;57063;51.406;-2.402;2022-12-07T13:55:26;9.07;;;3.72;;
48881;SDS011;57063;51.406;-2.402;2022-12-07T13:57:54;12.63;;;4.22;;
48881;SDS011;57063;51.406;-2.402;2022-12-07T14:00:24;8.02;;;3.63;;
48881;SDS011;57063;51.406;-2.402;2022-12-07T14:02:56;9.57;;;3.70;;
48881;SDS011;57063;51.406;-2.402;2022-12-07T14:05:30;9.68;;;3.70;;
48881;SDS011;57063;51.406;-2.402;2022-12-07T14:08:01;11.27;;;4.40;;
48881;SDS011;57063;51.406;-2.402;2022-12-07T14:10:36;11.75;;;4.88;;
48881;SDS011;57063;51.406;-2.402;2022-12-07T14:15:53;8.93;;;3.60;;
48881;SDS011;57063;51.406;-2.402;2022-12-07T14:18:29;8.80;;;3.70;;
48881;SDS011;57063;51.406;-2.402;2022-12-07T14:21:06;8.32;;;3.33;;
48881;SDS011;57063;51.406;-2.402;2022-12-07T14:23:44;8.85;;;4.20;;
48881;SDS011;57063;51.406;-2.402;2022-12-07T14:26:37;12.30;;;3.55;;
48881;SDS011;57063;51.406;-2.402;2022-12-07T14:31:50;10.38;;;3.90;;
48881;SDS011;57063;51.406;-2.402;2022-12-07T14:34:19;9.35;;;4.35;;
48881;SDS011;57063;51.406;-2.402;2022-12-07T14:36:54;7.75;;;3.70;;
48881;SDS011;57063;51.406;-2.402;2022-12-07T14:39:38;6.05;;;2.88;;
48881;SDS011;57063;51.406;-2.402;2022-12-07T14:42:26;11.50;;;3.08;;
48881;SDS011;57063;51.406;-2.402;2022-12-07T15:48:05;9.32;;;4.07;;
48881;SDS011;57063;51.406;-2.402;2022-12-07T15:54:49;8.60;;;4.00;;
48881;SDS011;57063;51.406;-2.402;2022-12-07T15:58:18;14.82;;;4.78;;
48881;SDS011;57063;51.406;-2.402;2022-12-07T16:01:19;8.23;;;3.88;;
48881;SDS011;57063;51.406;-2.402;2022-12-07T16:03:48;10.88;;;5.25;;
48881;SDS011;57063;51.406;-2.402;2022-12-07T16:09:23;8.32;;;4.25;;
48881;SDS011;57063;51.406;-2.402;2022-12-07T16:11:57;15.50;;;4.68;;
48881;SDS011;57063;51.406;-2.402;2022-12-07T16:14:31;13.13;;;5.03;;
48881;SDS011;57063;51.406;-2.402;2022-12-07T16:16:59;11.32;;;6.03;;
48881;SDS011;57063;51.406;-2.402;2022-12-07T16:19:53;11.63;;;5.00;;
48881;SDS011;57063;51.406;-2.402;2022-12-07T16:22:50;8.88;;;4.82;;
48881;SDS011;57063;51.406;-2.402;2022-12-07T16:25:19;15.00;;;5.82;;
48881;SDS011;57063;51.406;-2.402;2022-12-07T16:27:45;11.18;;;6.60;;
48881;SDS011;57063;51.406;-2.402;2022-12-07T16:30:17;14.07;;;6.50;;
48881;SDS011;57063;51.406;-2.402;2022-12-07T16:39:09;12.10;;;5.35;;
48881;SDS011;57063;51.406;-2.402;2022-12-07T16:41:35;12.88;;;6.20;;
48881;SDS011;57063;51.406;-2.402;2022-12-07T16:44:18;13.38;;;6.55;;
48881;SDS011;57063;51.406;-2.402;2022-12-07T16:46:53;17.65;;;5.15;;
48881;SDS011;57063;51.406;-2.402;2022-12-07T16:49:27;16.23;;;6.25;;
48881;SDS011;57063;51.406;-2.402;2022-12-07T16:52:24;14.85;;;5.03;;
48881;SDS011;57063;51.406;-2.402;2022-12-07T16:55:01;15.18;;;4.65;;
48881;SDS011;57063;51.406;-2.402;2022-12-07T17:00:12;11.98;;;4.70;;
48881;SDS011;57063;51.406;-2.402;2022-12-07T17:08:12;13.30;;;4.30;;
48881;SDS011;57063;51.406;-2.402;2022-12-07T17:10:45;10.77;;;4.25;;
48881;SDS011;57063;51.406;-2.402;2022-12-07T17:13:16;12.00;;;4.55;;
48881;SDS011;57063;51.406;-2.402;2022-12-07T17:16:04;13.43;;;4.75;;
48881;SDS011;57063;51.406;-2.402;2022-12-07T17:18:32;11.70;;;4.40;;
48881;SDS011;57063;51.406;-2.402;2022-12-07T17:24:03;11.73;;;5.30;;
48881;SDS011;57063;51.406;-2.402;2022-12-07T17:29:06;10.27;;;4.95;;
48881;SDS011;57063;51.406;-2.402;2022-12-07T20:18:39;11.32;;;5.88;;
48881;SDS011;57063;51.406;-2.402;2022-12-07T20:24:23;13.40;;;6.22;;
48881;SDS011;57063;51.406;-2.402;2022-12-07T20:29:48;19.13;;;6.82;;
48881;SDS011;57063;51.406;-2.402;2022-12-07T20:32:14;14.45;;;6.95;;
48881;SDS011;57063;51.406;-2.402;2022-12-07T20:34:40;12.25;;;6.30;;
48881;SDS011;57063;51.406;-2.402;2022-12-07T20:40:13;14.93;;;7.22;;
48881;SDS011;57063;51.406;-2.402;2022-12-07T20:42:42;15.18;;;6.70;;
48881;SDS011;57063;51.406;-2.402;2022-12-07T20:45:08;11.50;;;6.55;;
48881;SDS011;57063;51.406;-2.402;2022-12-07T20:47:35;11.52;;;6.63;;
48881;SDS011;57063;51.406;-2.402;2022-12-07T20:50:01;17.85;;;7.13;;
48881;SDS011;57063;51.406;-2.402;2022-12-07T20:52:28;17.25;;;8.25;;
48881;SDS011;57063;51.406;-2.402;2022-12-07T20:54:54;13.15;;;8.10;;
48881;SDS011;57063;51.406;-2.402;2022-12-07T20:57:19;16.92;;;8.82;;
48881;SDS011;57063;51.406;-2.402;2022-12-07T20:59:45;14.95;;;8.07;;
48881;SDS011;57063;51.406;-2.402;2022-12-07T21:02:11;13.23;;;7.70;;
48881;SDS011;57063;51.406;-2.402;2022-12-07T21:04:38;15.38;;;8.27;;
48881;SDS011;57063;51.406;-2.402;2022-12-07T21:07:04;17.30;;;9.35;;
48881;SDS011;57063;51.406;-2.402;2022-12-07T21:09:30;12.88;;;8.57;;
48881;SDS011;57063;51.406;-2.402;2022-12-07T21:11:56;17.95;;;9.82;;
48881;SDS011;57063;51.406;-2.402;2022-12-07T21:14:21;19.38;;;11.02;;
48881;SDS011;57063;51.406;-2.402;2022-12-07T21:16:47;26.35;;;12.80;;
48881;SDS011;57063;51.406;-2.402;2022-12-07T21:19:13;23.80;;;12.73;;
48881;SDS011;57063;51.406;-2.402;2022-12-07T21:21:38;18.00;;;11.52;;
48881;SDS011;57063;51.406;-2.402;2022-12-07T21:24:04;21.58;;;11.45;;
48881;SDS011;57063;51.406;-2.402;2022-12-07T21:26:32;20.02;;;10.80;;
48881;SDS011;57063;51.406;-2.402;2022-12-07T21:28:59;17.17;;;9.98;;
48881;SDS011;57063;51.406;-2.402;2022-12-07T21:31:26;19.08;;;8.55;;
48881;SDS011;57063;51.406;-2.402;2022-12-07T21:33:52;18.50;;;8.80;;
48881;SDS011;57063;51.406;-2.402;2022-12-07T21:36:18;12.40;;;8.45;;
48881;SDS011;57063;51.406;-2.402;2022-12-07T21:38:45;19.85;;;8.98;;
48881;SDS011;57063;51.406;-2.402;2022-12-07T21:41:21;12.75;;;7.38;;
48881;SDS011;57063;51.406;-2.402;2022-12-07T21:43:51;20.45;;;8.65;;
48881;SDS011;57063;51.406;-2.402;2022-12-07T21:46:21;20.85;;;9.15;;
48881;SDS011;57063;51.406;-2.402;2022-12-07T21:48:49;17.38;;;8.50;;
48881;SDS011;57063;51.406;-2.402;2022-12-07T21:51:19;25.08;;;8.23;;
48881;SDS011;57063;51.406;-2.402;2022-12-07T21:53:45;21.73;;;10.20;;
48881;SDS011;57063;51.406;-2.402;2022-12-07T21:56:16;14.35;;;7.75;;
48881;SDS011;57063;51.406;-2.402;2022-12-07T21:58:44;14.50;;;8.80;;
48881;SDS011;57063;51.406;-2.402;2022-12-07T22:01:17;14.60;;;7.82;;
48881;SDS011;57063;51.406;-2.402;2022-12-07T22:04:05;21.20;;;9.68;;
48881;SDS011;57063;51.406;-2.402;2022-12-07T22:06:32;15.50;;;8.50;;
48881;SDS011;57063;51.406;-2.402;2022-12-07T22:08:59;19.38;;;9.82;;
48881;SDS011;57063;51.406;-2.402;2022-12-07T22:11:24;16.33;;;9.50;;
48881;SDS011;57063;51.406;-2.402;2022-12-07T22:13:50;20.77;;;11.02;;
48881;SDS011;57063;51.406;-2.402;2022-12-07T22:16:34;26.60;;;11.55;;
48881;SDS011;57063;51.406;-2.402;2022-12-07T22:19:00;24.92;;;11.30;;
48881;SDS011;57063;51.406;-2.402;2022-12-07T22:21:25;26.98;;;10.80;;
48881;SDS011;57063;51.406;-2.402;2022-12-07T22:23:51;23.63;;;11.63;;
48881;SDS011;57063;51.406;-2.402;2022-12-07T22:26:17;19.83;;;9.45;;
48881;SDS011;57063;51.406;-2.402;2022-12-07T22:28:43;23.92;;;11.73;;
48881;SDS011;57063;51.406;-2.402;2022-12-07T22:31:11;21.33;;;12.63;;
48881;SDS011;57063;51.406;-2.402;2022-12-07T22:33:39;18.65;;;11.00;;
48881;SDS011;57063;51.406;-2.402;2022-12-07T22:36:07;23.15;;;11.50;;
48881;SDS011;57063;51.406;-2.402;2022-12-07T22:38:34;21.48;;;10.85;;
48881;SDS011;57063;51.406;-2.402;2022-12-07T22:41:07;20.05;;;10.43;;
48881;SDS011;57063;51.406;-2.402;2022-12-07T22:43:33;26.75;;;12.93;;
48881;SDS011;57063;51.406;-2.402;2022-12-07T22:45:59;19.35;;;11.02;;
48881;SDS011;57063;51.406;-2.402;2022-12-07T22:48:25;18.23;;;9.65;;
48881;SDS011;57063;51.406;-2.402;2022-12-07T22:50:51;18.73;;;9.93;;
48881;SDS011;57063;51.406;-2.402;2022-12-07T22:53:19;21.58;;;10.70;;
48881;SDS011;57063;51.406;-2.402;2022-12-07T22:55:45;25.75;;;10.27;;
48881;SDS011;57063;51.406;-2.402;2022-12-07T22:58:11;29.17;;;11.90;;
48881;SDS011;57063;51.406;-2.402;2022-12-07T23:00:37;22.45;;;10.38;;
48881;SDS011;57063;51.406;-2.402;2022-12-07T23:03:02;34.72;;;18.63;;
48881;SDS011;57063;51.406;-2.402;2022-12-07T23:05:28;46.78;;;22.17;;
48881;SDS011;57063;51.406;-2.402;2022-12-07T23:07:53;50.78;;;23.88;;
48881;SDS011;57063;51.406;-2.402;2022-12-07T23:10:19;51.75;;;23.13;;
48881;SDS011;57063;51.406;-2.402;2022-12-07T23:12:46;35.38;;;18.58;;
48881;SDS011;57063;51.406;-2.402;2022-12-07T23:15:32;43.22;;;19.27;;
48881;SDS011;57063;51.406;-2.402;2022-12-07T23:17:58;39.20;;;19.45;;
48881;SDS011;57063;51.406;-2.402;2022-12-07T23:20:23;40.60;;;18.75;;
48881;SDS011;57063;51.406;-2.402;2022-12-07T23:22:49;37.75;;;17.70;;
48881;SDS011;57063;51.406;-2.402;2022-12-07T23:25:14;45.28;;;18.45;;
48881;SDS011;57063;51.406;-2.402;2022-12-07T23:27:40;36.63;;;15.70;;
48881;SDS011;57063;51.406;-2.402;2022-12-07T23:30:06;37.60;;;18.98;;
48881;SDS011;57063;51.406;-2.402;2022-12-07T23:32:32;30.60;;;15.85;;
48881;SDS011;57063;51.406;-2.402;2022-12-07T23:34:57;24.50;;;13.32;;
48881;SDS011;57063;51.406;-2.402;2022-12-07T23:37:22;24.35;;;12.85;;
48881;SDS011;57063;51.406;-2.402;2022-12-07T23:39:48;25.00;;;11.93;;
48881;SDS011;57063;51.406;-2.402;2022-12-07T23:42:13;22.10;;;11.57;;
48881;SDS011;57063;51.406;-2.402;2022-12-07T23:44:39;29.83;;;13.00;;
48881;SDS011;57063;51.406;-2.402;2022-12-07T23:47:04;18.67;;;11.15;;
48881;SDS011;57063;51.406;-2.402;2022-12-07T23:49:30;22.55;;;11.73;;
48881;SDS011;57063;51.406;-2.402;2022-12-07T23:51:55;25.20;;;13.20;;
48881;SDS011;57063;51.406;-2.402;2022-12-07T23:54:21;21.63;;;11.02;;
48881;SDS011;57063;51.406;-2.402;2022-12-07T23:56:46;8.52;;;4.97;;
48881;SDS011;57063;51.406;-2.402;2022-12-07T23:59:12;9.00;;;4.57;;
